Time;durP1;ratioP1;P1;durP2;ratioP2;P2;SDS_P1;SDS_P2;PMS_P1;PMS_P2;Temp;Humidity;BMP_temperature;BMP_pressure;BME280_temperature;BME280_humidity;BME280_pressure;Samples;Min_cycle;Max_cycle;Signal;HPM_P1;HPM_P2
2022/08/04 00:01:44;;;;;;;7.75;3.10;;;;;;;;;;5068242;27;97357;-77
2022/08/04 00:04:13;;;;;;;7.90;3.67;;;;;;;;;;5056449;27;95380;-77
2022/08/04 00:06:46;;;;;;;6.55;3.20;;;;;;;;;;5051110;27;97324;-77
2022/08/04 00:09:16;;;;;;;7.22;3.10;;;;;;;;;;5063459;27;95382;-77
2022/08/04 00:11:44;;;;;;;7.55;3.35;;;;;;;;;;5061403;27;97494;-77
2022/08/04 00:14:12;;;;;;;6.70;3.10;;;;;;;;;;5068944;27;97712;-77
2022/08/04 00:16:40;;;;;;;10.70;3.60;;;;;;;;;;5071574;27;95462;-77
2022/08/04 00:19:11;;;;;;;13.93;3.70;;;;;;;;;;5068687;27;96827;-77
2022/08/04 00:21:41;;;;;;;11.82;3.42;;;;;;;;;;5069826;27;97766;-77
2022/08/04 00:24:08;;;;;;;8.23;4.00;;;;;;;;;;5062198;27;95388;-77
2022/08/04 00:26:38;;;;;;;10.43;4.15;;;;;;;;;;5050942;27;97397;-77
2022/08/04 00:29:05;;;;;;;7.45;3.55;;;;;;;;;;5054010;27;95504;-77
2022/08/04 00:31:31;;;;;;;11.35;4.38;;;;;;;;;;5066439;27;96765;-77
2022/08/04 00:34:18;;;;;;;9.27;3.95;;;;;;;;;;5072339;27;99352;-77
2022/08/04 00:36:44;;;;;;;8.63;4.00;;;;;;;;;;5070399;27;97973;-76
2022/08/04 00:39:12;;;;;;;15.13;4.10;;;;;;;;;;5068277;27;96731;-77
2022/08/04 00:41:48;;;;;;;17.38;4.00;;;;;;;;;;5065371;27;97493;-77
2022/08/04 00:44:40;;;;;;;9.73;4.03;;;;;;;;;;5073228;27;95333;-77
2022/08/04 00:47:14;;;;;;;10.10;3.97;;;;;;;;;;5071823;27;97143;-77
2022/08/04 00:49:56;;;;;;;7.32;3.85;;;;;;;;;;5072806;27;96527;-77
2022/08/04 00:52:41;;;;;;;10.18;4.45;;;;;;;;;;5056895;27;96800;-77
2022/08/04 00:55:10;;;;;;;7.82;3.83;;;;;;;;;;5066914;27;97443;-77
2022/08/04 00:57:53;;;;;;;8.88;4.68;;;;;;;;;;5067943;27;95378;-76
2022/08/04 01:00:20;;;;;;;7.40;4.15;;;;;;;;;;5075481;27;97121;-76
2022/08/04 01:02:49;;;;;;;8.63;4.07;;;;;;;;;;5074275;27;97423;-77
2022/08/04 01:05:32;;;;;;;6.68;3.70;;;;;;;;;;5058647;27;95383;-77
2022/08/04 01:08:15;;;;;;;9.63;3.60;;;;;;;;;;5059539;27;97178;-76
2022/08/04 01:10:41;;;;;;;8.27;3.88;;;;;;;;;;5078202;27;97678;-76
2022/08/04 01:13:26;;;;;;;8.57;4.10;;;;;;;;;;5075178;27;96863;-76
2022/08/04 01:15:58;;;;;;;11.70;4.20;;;;;;;;;;5075326;27;97454;-76
2022/08/04 01:18:35;;;;;;;6.57;4.00;;;;;;;;;;5074667;27;95303;-76
2022/08/04 01:21:08;;;;;;;14.93;4.25;;;;;;;;;;5058458;27;97317;-77
2022/08/04 01:23:53;;;;;;;13.20;3.53;;;;;;;;;;5074470;27;97464;-76
2022/08/04 01:26:36;;;;;;;9.85;3.55;;;;;;;;;;5074844;27;96850;-77
2022/08/04 01:29:22;;;;;;;8.13;3.60;;;;;;;;;;5075149;27;96945;-77
2022/08/04 01:32:06;;;;;;;12.90;3.50;;;;;;;;;;5074219;27;97199;-77
2022/08/04 01:34:52;;;;;;;7.53;3.57;;;;;;;;;;5070234;27;96054;-77
2022/08/04 01:37:21;;;;;;;7.95;3.40;;;;;;;;;;5071943;27;97661;-76
2022/08/04 01:39:59;;;;;;;15.07;3.80;;;;;;;;;;5074009;27;95182;-77
2022/08/04 01:42:27;;;;;;;16.48;3.33;;;;;;;;;;5074896;27;96755;-76
2022/08/04 01:44:59;;;;;;;8.45;3.30;;;;;;;;;;5061052;27;97284;-76
2022/08/04 01:47:27;;;;;;;7.10;3.00;;;;;;;;;;5070801;27;96948;-76
2022/08/04 01:49:53;;;;;;;11.32;3.72;;;;;;;;;;5062518;27;96856;-76
2022/08/04 01:52:22;;;;;;;8.07;3.28;;;;;;;;;;5071180;27;97893;-76
2022/08/04 01:54:49;;;;;;;10.30;3.20;;;;;;;;;;5074611;27;95309;-76
2022/08/04 01:57:17;;;;;;;7.28;3.40;;;;;;;;;;5075098;27;97117;-76
2022/08/04 02:00:04;;;;;;;8.15;3.40;;;;;;;;;;5061707;27;95035;-75
2022/08/04 02:02:30;;;;;;;6.88;3.47;;;;;;;;;;5072638;27;97227;-76
2022/08/04 02:04:56;;;;;;;13.68;3.88;;;;;;;;;;5057393;27;97594;-76
2022/08/04 02:07:26;;;;;;;6.43;3.63;;;;;;;;;;5073472;27;95522;-76
2022/08/04 02:10:01;;;;;;;8.27;3.72;;;;;;;;;;5074529;27;96814;-76
2022/08/04 02:12:46;;;;;;;9.48;4.00;;;;;;;;;;5072960;27;96302;-76
2022/08/04 02:15:21;;;;;;;6.30;3.60;;;;;;;;;;5067109;27;95402;-76
2022/08/04 02:17:54;;;;;;;16.23;3.63;;;;;;;;;;5061519;27;96775;-76
2022/08/04 02:20:27;;;;;;;9.85;3.50;;;;;;;;;;5077340;27;96359;-76
2022/08/04 02:22:58;;;;;;;8.38;3.33;;;;;;;;;;5073866;27;97026;-76
2022/08/04 02:25:25;;;;;;;9.18;3.50;;;;;;;;;;5073907;27;97441;-76
2022/08/04 02:28:04;;;;;;;9.40;3.90;;;;;;;;;;5070499;27;95758;-76
2022/08/04 02:30:33;;;;;;;9.32;3.65;;;;;;;;;;5054122;27;96848;-76
2022/08/04 02:33:02;;;;;;;9.57;3.60;;;;;;;;;;5052567;27;97678;-76
2022/08/04 02:35:31;;;;;;;7.72;3.05;;;;;;;;;;5053288;27;95291;-76
2022/08/04 02:38:05;;;;;;;7.63;3.63;;;;;;;;;;5053752;27;97095;-76
2022/08/04 02:40:31;;;;;;;10.75;3.90;;;;;;;;;;5065325;27;97342;-76
2022/08/04 02:43:02;;;;;;;12.20;3.85;;;;;;;;;;5073600;27;96734;-76
2022/08/04 02:45:30;;;;;;;15.82;3.83;;;;;;;;;;5070692;27;97445;-76
2022/08/04 02:47:58;;;;;;;7.65;3.30;;;;;;;;;;5055413;27;95363;-76
2022/08/04 02:50:45;;;;;;;8.18;3.50;;;;;;;;;;5066295;27;98251;-76
2022/08/04 02:53:14;;;;;;;9.88;3.85;;;;;;;;;;5064532;27;97412;-76
2022/08/04 02:55:43;;;;;;;9.50;3.80;;;;;;;;;;5067569;27;95515;-76
2022/08/04 02:58:22;;;;;;;9.15;3.78;;;;;;;;;;5064513;27;97377;-76
2022/08/04 03:00:49;;;;;;;12.15;3.72;;;;;;;;;;5066219;27;96855;-76
2022/08/04 03:03:29;;;;;;;9.98;4.20;;;;;;;;;;5074740;27;95474;-77
2022/08/04 03:06:05;;;;;;;9.18;3.72;;;;;;;;;;5054187;27;97896;-76
2022/08/04 03:08:54;;;;;;;10.40;3.88;;;;;;;;;;5050083;27;95302;-75
2022/08/04 03:11:33;;;;;;;7.30;3.92;;;;;;;;;;5052724;27;96920;-76
2022/08/04 03:14:21;;;;;;;13.65;3.60;;;;;;;;;;5057464;27;97710;-76
2022/08/04 03:17:10;;;;;;;7.90;3.63;;;;;;;;;;5070792;27;95242;-76
2022/08/04 03:19:40;;;;;;;13.63;3.80;;;;;;;;;;5054045;27;96749;-76
2022/08/04 03:22:25;;;;;;;8.45;3.00;;;;;;;;;;5052122;27;97501;-76
2022/08/04 03:25:03;;;;;;;12.65;4.22;;;;;;;;;;5056401;27;95719;-76
2022/08/04 03:27:42;;;;;;;9.00;3.30;;;;;;;;;;5074170;27;97092;-76
2022/08/04 03:30:14;;;;;;;5.70;3.35;;;;;;;;;;5071484;27;95288;-76
2022/08/04 03:32:56;;;;;;;11.48;4.22;;;;;;;;;;5064960;27;97149;-76
2022/08/04 03:35:28;;;;;;;6.13;3.88;;;;;;;;;;5052430;27;97461;-76
2022/08/04 03:38:06;;;;;;;7.97;3.70;;;;;;;;;;5051141;27;96555;-76
2022/08/04 03:40:38;;;;;;;9.57;3.70;;;;;;;;;;5051762;27;96909;-76
2022/08/04 03:43:24;;;;;;;10.85;3.65;;;;;;;;;;5069774;27;97794;-76
2022/08/04 03:46:11;;;;;;;11.05;3.92;;;;;;;;;;5062794;27;95188;-76
2022/08/04 03:48:37;;;;;;;9.15;3.97;;;;;;;;;;5054651;27;96913;-76
2022/08/04 03:54:13;;;;;;;9.48;4.03;;;;;;;;;;5056989;27;96805;-76
2022/08/04 03:56:46;;;;;;;6.38;3.22;;;;;;;;;;5051998;27;97374;-76
2022/08/04 03:59:18;;;;;;;13.48;4.13;;;;;;;;;;5052081;27;95586;-76
2022/08/04 04:01:47;;;;;;;8.65;3.42;;;;;;;;;;5052039;27;97308;-76
2022/08/04 04:04:34;;;;;;;8.40;3.35;;;;;;;;;;5065039;27;97665;-76
2022/08/04 04:07:24;;;;;;;7.82;3.65;;;;;;;;;;5072328;27;95382;-76
2022/08/04 04:10:13;;;;;;;11.73;3.83;;;;;;;;;;5073014;27;97000;-76
2022/08/04 04:12:50;;;;;;;10.80;4.15;;;;;;;;;;5066504;27;97528;-76
2022/08/04 04:15:17;;;;;;;7.65;3.72;;;;;;;;;;5057336;27;95199;-75
2022/08/04 04:17:43;;;;;;;10.27;3.55;;;;;;;;;;5062569;27;97664;-76
2022/08/04 04:20:23;;;;;;;8.55;3.75;;;;;;;;;;5058563;27;95293;-76
2022/08/04 04:22:59;;;;;;;7.25;3.70;;;;;;;;;;5071152;27;96786;-76
2022/08/04 04:25:28;;;;;;;8.70;3.92;;;;;;;;;;5075227;27;97696;-76
2022/08/04 04:28:30;;;;;;;8.57;3.53;;;;;;;;;;5073790;27;96160;-76
2022/08/04 04:31:12;;;;;;;7.90;3.40;;;;;;;;;;5013283;28;96990;-75
2022/08/04 04:33:38;;;;;;;9.90;3.75;;;;;;;;;;5064119;27;97352;-76
2022/08/04 04:36:10;;;;;;;9.82;4.00;;;;;;;;;;5066355;27;95425;-76
2022/08/04 20:10:33;;;;;;;5.43;2.00;;;;;;;;;;5064241;27;1328483;-83
2022/08/04 20:13:05;;;;;;;7.18;2.22;;;;;;;;;;5089143;27;96642;-75
2022/08/04 20:15:35;;;;;;;7.03;2.20;;;;;;;;;;5089618;27;95334;-75
2022/08/04 20:18:02;;;;;;;5.18;2.20;;;;;;;;;;5086905;27;96832;-75
2022/08/04 20:20:48;;;;;;;7.78;2.20;;;;;;;;;;5077176;27;99369;-75
2022/08/04 20:23:15;;;;;;;6.30;2.30;;;;;;;;;;5089054;27;95510;-75
2022/08/04 20:25:53;;;;;;;5.97;1.80;;;;;;;;;;5087837;27;96655;-74
2022/08/04 20:28:21;;;;;;;4.28;2.00;;;;;;;;;;5085886;27;97267;-74
2022/08/04 20:31:02;;;;;;;4.70;1.90;;;;;;;;;;5091104;27;95340;-75
2022/08/04 20:33:28;;;;;;;6.82;2.45;;;;;;;;;;5089013;27;97441;-74
2022/08/04 20:35:55;;;;;;;10.25;2.10;;;;;;;;;;5089807;27;95512;-76
2022/08/04 20:38:32;;;;;;;4.95;2.00;;;;;;;;;;5085828;27;96808;-75
2022/08/04 20:41:00;;;;;;;5.35;2.08;;;;;;;;;;5087236;27;97164;-75
2022/08/04 20:43:29;;;;;;;5.68;2.17;;;;;;;;;;5079145;27;95654;-75
2022/08/04 20:45:56;;;;;;;5.55;2.08;;;;;;;;;;5089094;27;96819;-75
2022/08/04 20:48:42;;;;;;;6.07;2.38;;;;;;;;;;5086401;27;99039;-75
2022/08/04 20:51:09;;;;;;;4.95;1.92;;;;;;;;;;5082329;27;96866;-75
2022/08/04 20:53:35;;;;;;;9.63;2.53;;;;;;;;;;5091844;27;96734;-75
2022/08/04 20:56:18;;;;;;;5.50;2.25;;;;;;;;;;5088984;27;95233;-76
2022/08/04 20:58:57;;;;;;;5.30;2.33;;;;;;;;;;5088066;27;97363;-75
2022/08/04 21:01:23;;;;;;;4.97;2.35;;;;;;;;;;5086001;27;97472;-75
2022/08/04 21:06:54;;;;;;;5.50;2.20;;;;;;;;;;5084243;27;96888;-75
2022/08/04 21:09:22;;;;;;;7.18;2.53;;;;;;;;;;5087122;27;96595;-75
2022/08/04 21:12:04;;;;;;;4.80;2.13;;;;;;;;;;5086760;27;95330;-75
2022/08/04 21:14:30;;;;;;;7.15;2.55;;;;;;;;;;5084950;27;97386;-75
2022/08/04 21:16:57;;;;;;;10.93;2.65;;;;;;;;;;5087400;27;97419;-74
2022/08/04 21:19:24;;;;;;;6.78;2.45;;;;;;;;;;5087132;27;97005;-74
2022/08/04 21:21:52;;;;;;;8.93;2.60;;;;;;;;;;5065232;27;97316;-76
2022/08/04 21:24:21;;;;;;;9.20;3.05;;;;;;;;;;5057833;27;95346;-76
2022/08/04 21:26:52;;;;;;;8.45;2.88;;;;;;;;;;5071564;27;95887;-76
2022/08/04 21:29:22;;;;;;;6.80;2.50;;;;;;;;;;5071488;27;97508;-76
2022/08/04 21:32:01;;;;;;;6.47;2.20;;;;;;;;;;5074603;27;97047;-76
2022/08/04 21:34:28;;;;;;;10.48;2.55;;;;;;;;;;5074205;27;96830;-76
2022/08/04 21:37:05;;;;;;;6.25;2.00;;;;;;;;;;5063870;27;97663;-76
2022/08/04 21:39:34;;;;;;;9.95;2.28;;;;;;;;;;5078793;27;95420;-76
2022/08/04 21:42:21;;;;;;;9.50;2.40;;;;;;;;;;5070036;27;99335;-75
2022/08/04 21:44:55;;;;;;;7.32;2.60;;;;;;;;;;5065707;27;95367;-75
2022/08/04 21:47:21;;;;;;;6.82;2.40;;;;;;;;;;5075468;27;96821;-76
2022/08/04 21:49:49;;;;;;;7.45;2.38;;;;;;;;;;5071170;27;97340;-76
2022/08/04 21:52:22;;;;;;;13.80;2.70;;;;;;;;;;5072507;27;95561;-76
2022/08/04 21:54:49;;;;;;;9.65;2.75;;;;;;;;;;5075108;27;96646;-76
2022/08/04 21:57:20;;;;;;;9.10;2.80;;;;;;;;;;5074826;27;97305;-76
2022/08/04 21:59:50;;;;;;;9.02;2.60;;;;;;;;;;5068383;27;96058;-76
2022/08/04 22:02:16;;;;;;;9.15;2.58;;;;;;;;;;5076004;27;97138;-75
2022/08/04 22:04:43;;;;;;;10.45;2.72;;;;;;;;;;5074481;27;95397;-75
2022/08/04 22:07:09;;;;;;;8.38;2.65;;;;;;;;;;5055114;27;96736;-76
2022/08/04 22:09:35;;;;;;;7.32;2.40;;;;;;;;;;5062495;27;97290;-76
2022/08/04 22:12:07;;;;;;;10.93;3.10;;;;;;;;;;5073417;27;95249;-76
2022/08/04 22:14:38;;;;;;;8.10;2.50;;;;;;;;;;5060473;27;97741;-76
2022/08/04 22:17:04;;;;;;;8.90;2.85;;;;;;;;;;5063975;27;97250;-75
2022/08/04 22:19:31;;;;;;;10.80;2.63;;;;;;;;;;5074477;27;95338;-75
2022/08/04 22:22:17;;;;;;;11.02;2.80;;;;;;;;;;5074003;27;98597;-76
2022/08/04 22:24:52;;;;;;;9.80;3.00;;;;;;;;;;5071036;27;95371;-76
2022/08/04 22:30:06;;;;;;;9.65;2.78;;;;;;;;;;5069906;27;97420;-77
2022/08/04 22:32:43;;;;;;;10.70;3.10;;;;;;;;;;5067186;27;95410;-76
2022/08/04 22:35:13;;;;;;;8.07;2.55;;;;;;;;;;5074145;27;96652;-76
2022/08/04 22:37:59;;;;;;;7.95;2.60;;;;;;;;;;5074173;27;99380;-76
2022/08/04 22:40:33;;;;;;;11.23;2.70;;;;;;;;;;5063565;27;95855;-76
2022/08/04 22:43:01;;;;;;;12.45;3.00;;;;;;;;;;5073443;27;97302;-76
2022/08/04 22:45:28;;;;;;;8.20;2.75;;;;;;;;;;5070532;27;97586;-75
2022/08/04 22:48:10;;;;;;;9.13;2.78;;;;;;;;;;5073668;27;96745;-75
2022/08/04 22:50:36;;;;;;;12.48;2.60;;;;;;;;;;5074372;27;97428;-75
2022/08/04 22:53:03;;;;;;;8.30;2.60;;;;;;;;;;5072822;27;95597;-75
2022/08/04 22:55:30;;;;;;;9.40;2.58;;;;;;;;;;5069441;27;96474;-75
2022/08/04 22:58:16;;;;;;;9.85;2.67;;;;;;;;;;5071867;27;98791;-76
2022/08/04 23:00:43;;;;;;;8.13;2.67;;;;;;;;;;5067546;27;95226;-75
2022/08/04 23:03:18;;;;;;;10.50;2.80;;;;;;;;;;5072980;27;97101;-76
2022/08/04 23:06:05;;;;;;;8.40;2.67;;;;;;;;;;5073912;27;97301;-75
2022/08/04 23:08:32;;;;;;;9.25;2.75;;;;;;;;;;5073868;27;97184;-76
2022/08/04 23:11:02;;;;;;;11.55;3.28;;;;;;;;;;5072041;27;96266;-75
2022/08/04 23:13:30;;;;;;;9.02;2.70;;;;;;;;;;5063038;27;95577;-76
2022/08/04 23:15:57;;;;;;;8.13;2.72;;;;;;;;;;5074464;27;97108;-76
2022/08/04 23:18:23;;;;;;;6.82;2.75;;;;;;;;;;5070631;27;97975;-76
2022/08/04 23:20:52;;;;;;;9.27;3.13;;;;;;;;;;5074039;27;95227;-76
2022/08/04 23:23:19;;;;;;;10.88;3.20;;;;;;;;;;5071843;27;97196;-76
2022/08/04 23:25:45;;;;;;;16.38;2.97;;;;;;;;;;5070851;27;98033;-76
2022/08/04 23:28:32;;;;;;;12.43;3.08;;;;;;;;;;5068776;27;95777;-76
2022/08/04 23:30:58;;;;;;;9.05;2.95;;;;;;;;;;5065004;27;97493;-76
2022/08/04 23:33:28;;;;;;;10.18;2.95;;;;;;;;;;5072669;27;95415;-76
2022/08/04 23:36:14;;;;;;;9.20;2.55;;;;;;;;;;5073657;27;98416;-76
2022/08/04 23:38:41;;;;;;;9.35;2.63;;;;;;;;;;5073830;27;97512;-76
2022/08/04 23:41:14;;;;;;;10.52;2.70;;;;;;;;;;5072960;27;95504;-77
2022/08/04 23:43:44;;;;;;;12.38;2.85;;;;;;;;;;5068855;27;97236;-76
2022/08/04 23:46:20;;;;;;;13.27;3.15;;;;;;;;;;5064551;27;97394;-76
2022/08/04 23:48:47;;;;;;;10.50;2.55;;;;;;;;;;5073613;27;95896;-76
2022/08/04 23:51:13;;;;;;;6.63;2.60;;;;;;;;;;5073916;27;96796;-76
2022/08/04 23:53:42;;;;;;;7.85;2.80;;;;;;;;;;5075551;27;97782;-76
2022/08/04 23:56:28;;;;;;;8.77;3.17;;;;;;;;;;5073145;27;98442;-76
2022/08/04 23:58:54;;;;;;;7.70;2.50;;;;;;;;;;5067636;27;97843;-76
